sensor_id;sensor_type;location;lat;lon;timestamp;pressure;altitude;pressure_sealevel;temperature;humidity
23677;BME280;31493;49.058;12.190;2022-11-22T00:00:22;94254.91;;;2.32;100.00
23677;BME280;31493;49.058;12.190;2022-11-22T00:02:51;94246.41;;;2.19;100.00
23677;BME280;31493;49.058;12.190;2022-11-22T00:05:20;94242.75;;;2.23;100.00
23677;BME280;31493;49.058;12.190;2022-11-22T00:07:47;94246.00;;;2.25;100.00
23677;BME280;31493;49.058;12.190;2022-11-22T00:10:14;94243.78;;;2.33;100.00
23677;BME280;31493;49.058;12.190;2022-11-22T00:12:42;94238.06;;;2.30;100.00
23677;BME280;31493;49.058;12.190;2022-11-22T00:15:10;94230.56;;;2.27;100.00
23677;BME280;31493;49.058;12.190;2022-11-22T00:17:37;94246.13;;;2.24;100.00
23677;BME280;31493;49.058;12.190;2022-11-22T00:20:07;94247.75;;;2.25;100.00
23677;BME280;31493;49.058;12.190;2022-11-22T00:22:37;94239.38;;;2.23;100.00
23677;BME280;31493;49.058;12.190;2022-11-22T00:25:05;94226.25;;;2.14;100.00
23677;BME280;31493;49.058;12.190;2022-11-22T00:27:32;94232.78;;;2.06;100.00
23677;BME280;31493;49.058;12.190;2022-11-22T00:29:59;94243.72;;;2.08;100.00
23677;BME280;31493;49.058;12.190;2022-11-22T00:32:26;94257.81;;;2.13;100.00
23677;BME280;31493;49.058;12.190;2022-11-22T00:34:53;94260.31;;;2.01;100.00
23677;BME280;31493;49.058;12.190;2022-11-22T00:37:20;94258.00;;;1.83;100.00
23677;BME280;31493;49.058;12.190;2022-11-22T00:39:49;94276.63;;;1.71;100.00
23677;BME280;31493;49.058;12.190;2022-11-22T00:42:16;94286.13;;;1.69;100.00
23677;BME280;31493;49.058;12.190;2022-11-22T00:44:43;94286.19;;;1.82;100.00
23677;BME280;31493;49.058;12.190;2022-11-22T00:47:10;94280.38;;;1.66;100.00
23677;BME280;31493;49.058;12.190;2022-11-22T00:49:37;94262.19;;;1.57;100.00
23677;BME280;31493;49.058;12.190;2022-11-22T00:52:04;94261.25;;;1.58;100.00
23677;BME280;31493;49.058;12.190;2022-11-22T00:54:31;94249.09;;;1.49;100.00
23677;BME280;31493;49.058;12.190;2022-11-22T00:57:00;94268.38;;;1.53;100.00
23677;BME280;31493;49.058;12.190;2022-11-22T00:59:27;94266.41;;;1.44;100.00
23677;BME280;31493;49.058;12.190;2022-11-22T01:01:54;94257.22;;;1.42;100.00
23677;BME280;31493;49.058;12.190;2022-11-22T01:04:21;94250.91;;;1.47;100.00
23677;BME280;31493;49.058;12.190;2022-11-22T01:06:48;94256.63;;;1.51;100.00
23677;BME280;31493;49.058;12.190;2022-11-22T01:09:17;94254.47;;;1.45;100.00
23677;BME280;31493;49.058;12.190;2022-11-22T01:11:44;94255.00;;;1.50;100.00
23677;BME280;31493;49.058;12.190;2022-11-22T01:14:14;94245.88;;;1.60;100.00
23677;BME280;31493;49.058;12.190;2022-11-22T01:16:41;94239.50;;;1.53;100.00
23677;BME280;31493;49.058;12.190;2022-11-22T01:19:08;94261.38;;;1.57;100.00
23677;BME280;31493;49.058;12.190;2022-11-22T01:21:35;94259.03;;;1.54;100.00
23677;BME280;31493;49.058;12.190;2022-11-22T01:24:02;94251.75;;;1.48;100.00
23677;BME280;31493;49.058;12.190;2022-11-22T01:26:29;94268.88;;;1.31;100.00
23677;BME280;31493;49.058;12.190;2022-11-22T01:28:56;94263.69;;;1.33;100.00
23677;BME280;31493;49.058;12.190;2022-11-22T01:31:25;94278.50;;;1.41;100.00
23677;BME280;31493;49.058;12.190;2022-11-22T01:33:51;94272.72;;;1.24;100.00
23677;BME280;31493;49.058;12.190;2022-11-22T01:36:19;94283.28;;;1.18;100.00
23677;BME280;31493;49.058;12.190;2022-11-22T01:38:46;94292.84;;;1.29;100.00
23677;BME280;31493;49.058;12.190;2022-11-22T01:41:13;94287.88;;;1.40;100.00
23677;BME280;31493;49.058;12.190;2022-11-22T01:43:40;94287.16;;;1.38;100.00
23677;BME280;31493;49.058;12.190;2022-11-22T01:46:09;94283.88;;;1.22;100.00
23677;BME280;31493;49.058;12.190;2022-11-22T01:48:47;94278.06;;;1.34;100.00
23677;BME280;31493;49.058;12.190;2022-11-22T01:51:21;94273.31;;;1.28;100.00
23677;BME280;31493;49.058;12.190;2022-11-22T01:53:51;94268.06;;;1.17;100.00
23677;BME280;31493;49.058;12.190;2022-11-22T01:56:20;94271.59;;;1.14;100.00
23677;BME280;31493;49.058;12.190;2022-11-22T01:58:52;94265.97;;;1.23;100.00
23677;BME280;31493;49.058;12.190;2022-11-22T02:01:21;94272.53;;;1.13;100.00
23677;BME280;31493;49.058;12.190;2022-11-22T02:03:51;94271.16;;;1.22;100.00
23677;BME280;31493;49.058;12.190;2022-11-22T02:06:20;94271.44;;;1.17;100.00
23677;BME280;31493;49.058;12.190;2022-11-22T02:08:51;94269.44;;;1.08;100.00
23677;BME280;31493;49.058;12.190;2022-11-22T02:11:20;94277.72;;;1.12;100.00
23677;BME280;31493;49.058;12.190;2022-11-22T02:13:50;94276.16;;;0.95;100.00
23677;BME280;31493;49.058;12.190;2022-11-22T02:16:18;94269.63;;;1.05;100.00
23677;BME280;31493;49.058;12.190;2022-11-22T02:18:45;94271.41;;;1.03;100.00
23677;BME280;31493;49.058;12.190;2022-11-22T02:21:13;94265.25;;;0.93;100.00
23677;BME280;31493;49.058;12.190;2022-11-22T02:23:48;94279.88;;;1.03;100.00
23677;BME280;31493;49.058;12.190;2022-11-22T02:26:17;94261.03;;;1.20;100.00
23677;BME280;31493;49.058;12.190;2022-11-22T02:28:45;94244.09;;;1.33;100.00
23677;BME280;31493;49.058;12.190;2022-11-22T02:31:34;94251.75;;;1.33;100.00
23677;BME280;31493;49.058;12.190;2022-11-22T02:34:02;94241.53;;;1.33;100.00
23677;BME280;31493;49.058;12.190;2022-11-22T02:36:33;94223.69;;;1.33;100.00
23677;BME280;31493;49.058;12.190;2022-11-22T02:39:01;94232.00;;;1.37;100.00
23677;BME280;31493;49.058;12.190;2022-11-22T02:41:30;94231.88;;;1.39;100.00
23677;BME280;31493;49.058;12.190;2022-11-22T02:43:57;94227.41;;;1.56;100.00
23677;BME280;31493;49.058;12.190;2022-11-22T02:46:24;94236.63;;;1.45;100.00
23677;BME280;31493;49.058;12.190;2022-11-22T02:48:51;94220.28;;;1.47;100.00
23677;BME280;31493;49.058;12.190;2022-11-22T02:51:18;94228.88;;;1.46;100.00
23677;BME280;31493;49.058;12.190;2022-11-22T02:53:47;94240.69;;;1.47;100.00
23677;BME280;31493;49.058;12.190;2022-11-22T02:56:14;94243.56;;;1.43;100.00
23677;BME280;31493;49.058;12.190;2022-11-22T02:58:43;94238.63;;;1.54;100.00
23677;BME280;31493;49.058;12.190;2022-11-22T03:01:11;94233.97;;;1.46;100.00
23677;BME280;31493;49.058;12.190;2022-11-22T03:03:38;94246.38;;;1.38;100.00
23677;BME280;31493;49.058;12.190;2022-11-22T03:06:05;94239.16;;;1.45;100.00
23677;BME280;31493;49.058;12.190;2022-11-22T03:08:32;94239.88;;;1.47;100.00
23677;BME280;31493;49.058;12.190;2022-11-22T03:10:59;94239.81;;;1.48;100.00
23677;BME280;31493;49.058;12.190;2022-11-22T03:13:26;94237.06;;;1.51;100.00
23677;BME280;31493;49.058;12.190;2022-11-22T03:15:54;94236.25;;;1.51;100.00
23677;BME280;31493;49.058;12.190;2022-11-22T03:18:21;94256.38;;;1.55;100.00
23677;BME280;31493;49.058;12.190;2022-11-22T03:20:48;94256.16;;;1.58;100.00
23677;BME280;31493;49.058;12.190;2022-11-22T03:23:16;94262.63;;;1.64;100.00
23677;BME280;31493;49.058;12.190;2022-11-22T03:25:43;94260.19;;;1.63;100.00
23677;BME280;31493;49.058;12.190;2022-11-22T03:28:10;94256.44;;;1.68;100.00
23677;BME280;31493;49.058;12.190;2022-11-22T03:30:40;94266.25;;;1.74;100.00
23677;BME280;31493;49.058;12.190;2022-11-22T03:33:08;94268.25;;;1.69;100.00
23677;BME280;31493;49.058;12.190;2022-11-22T03:35:35;94261.97;;;1.75;100.00
23677;BME280;31493;49.058;12.190;2022-11-22T03:38:03;94268.00;;;1.74;100.00
23677;BME280;31493;49.058;12.190;2022-11-22T03:40:30;94275.00;;;1.70;100.00
23677;BME280;31493;49.058;12.190;2022-11-22T03:42:58;94265.53;;;1.72;100.00
23677;BME280;31493;49.058;12.190;2022-11-22T03:45:26;94271.47;;;1.73;100.00
23677;BME280;31493;49.058;12.190;2022-11-22T03:47:54;94266.25;;;1.74;100.00
23677;BME280;31493;49.058;12.190;2022-11-22T03:50:23;94274.00;;;1.73;100.00
23677;BME280;31493;49.058;12.190;2022-11-22T03:52:50;94284.13;;;1.74;100.00
23677;BME280;31493;49.058;12.190;2022-11-22T03:55:17;94280.53;;;1.77;100.00
23677;BME280;31493;49.058;12.190;2022-11-22T03:57:44;94273.47;;;1.68;100.00
23677;BME280;31493;49.058;12.190;2022-11-22T04:00:12;94291.13;;;1.71;100.00
23677;BME280;31493;49.058;12.190;2022-11-22T04:02:39;94281.28;;;1.65;100.00
23677;BME280;31493;49.058;12.190;2022-11-22T04:05:07;94292.03;;;1.70;100.00
23677;BME280;31493;49.058;12.190;2022-11-22T04:07:35;94292.97;;;1.69;100.00
23677;BME280;31493;49.058;12.190;2022-11-22T04:10:02;94279.41;;;1.54;100.00
23677;BME280;31493;49.058;12.190;2022-11-22T04:12:29;94292.63;;;1.60;100.00
23677;BME280;31493;49.058;12.190;2022-11-22T04:14:56;94287.16;;;1.67;100.00
23677;BME280;31493;49.058;12.190;2022-11-22T04:17:32;94295.78;;;1.64;100.00
23677;BME280;31493;49.058;12.190;2022-11-22T04:20:12;94290.78;;;1.63;100.00
23677;BME280;31493;49.058;12.190;2022-11-22T04:22:59;94313.84;;;1.61;100.00
23677;BME280;31493;49.058;12.190;2022-11-22T04:25:28;94302.44;;;1.67;100.00
23677;BME280;31493;49.058;12.190;2022-11-22T04:27:54;94312.72;;;1.65;100.00
23677;BME280;31493;49.058;12.190;2022-11-22T04:30:22;94323.56;;;1.69;100.00
23677;BME280;31493;49.058;12.190;2022-11-22T04:33:11;94314.91;;;1.71;100.00
23677;BME280;31493;49.058;12.190;2022-11-22T04:35:37;94314.00;;;1.72;100.00
23677;BME280;31493;49.058;12.190;2022-11-22T04:38:06;94320.38;;;1.65;100.00
23677;BME280;31493;49.058;12.190;2022-11-22T04:40:33;94308.97;;;1.71;100.00
23677;BME280;31493;49.058;12.190;2022-11-22T04:43:01;94311.25;;;1.75;100.00
23677;BME280;31493;49.058;12.190;2022-11-22T04:45:45;94300.34;;;1.73;100.00
23677;BME280;31493;49.058;12.190;2022-11-22T04:48:13;94296.97;;;1.73;100.00
23677;BME280;31493;49.058;12.190;2022-11-22T04:50:41;94302.13;;;1.71;100.00
23677;BME280;31493;49.058;12.190;2022-11-22T04:53:28;94299.16;;;1.79;100.00
23677;BME280;31493;49.058;12.190;2022-11-22T04:55:55;94292.03;;;1.70;100.00
23677;BME280;31493;49.058;12.190;2022-11-22T04:58:22;94296.66;;;1.77;100.00
23677;BME280;31493;49.058;12.190;2022-11-22T05:00:50;94288.94;;;1.79;100.00
23677;BME280;31493;49.058;12.190;2022-11-22T05:03:17;94296.66;;;1.77;100.00
23677;BME280;31493;49.058;12.190;2022-11-22T05:05:44;94296.06;;;1.74;100.00
23677;BME280;31493;49.058;12.190;2022-11-22T05:08:11;94286.28;;;1.80;100.00
23677;BME280;31493;49.058;12.190;2022-11-22T05:10:40;94299.84;;;1.81;100.00
23677;BME280;31493;49.058;12.190;2022-11-22T05:13:25;94300.69;;;1.81;100.00
23677;BME280;31493;49.058;12.190;2022-11-22T05:15:53;94296.50;;;1.80;100.00
23677;BME280;31493;49.058;12.190;2022-11-22T05:18:21;94296.97;;;1.73;100.00
23677;BME280;31493;49.058;12.190;2022-11-22T05:20:48;94305.78;;;1.81;100.00
23677;BME280;31493;49.058;12.190;2022-11-22T05:23:16;94294.16;;;1.90;100.00
23677;BME280;31493;49.058;12.190;2022-11-22T05:26:02;94306.22;;;1.88;100.00
23677;BME280;31493;49.058;12.190;2022-11-22T05:28:31;94301.50;;;1.82;100.00
23677;BME280;31493;49.058;12.190;2022-11-22T05:31:05;94296.75;;;1.76;100.00
23677;BME280;31493;49.058;12.190;2022-11-22T05:33:32;94302.19;;;1.57;100.00
23677;BME280;31493;49.058;12.190;2022-11-22T05:36:00;94298.16;;;1.67;100.00
23677;BME280;31493;49.058;12.190;2022-11-22T05:38:27;94300.06;;;1.64;100.00
23677;BME280;31493;49.058;12.190;2022-11-22T05:40:54;94292.16;;;1.68;100.00
23677;BME280;31493;49.058;12.190;2022-11-22T05:43:23;94300.78;;;1.66;100.00
23677;BME280;31493;49.058;12.190;2022-11-22T05:45:50;94289.50;;;1.70;100.00
23677;BME280;31493;49.058;12.190;2022-11-22T05:48:17;94302.19;;;1.57;100.00
23677;BME280;31493;49.058;12.190;2022-11-22T05:50:44;94309.28;;;1.52;100.00
23677;BME280;31493;49.058;12.190;2022-11-22T05:53:12;94303.56;;;1.48;100.00
23677;BME280;31493;49.058;12.190;2022-11-22T05:55:39;94303.63;;;1.61;100.00
23677;BME280;31493;49.058;12.190;2022-11-22T05:58:06;94299.44;;;1.60;100.00
23677;BME280;31493;49.058;12.190;2022-11-22T06:00:34;94306.09;;;1.63;100.00
23677;BME280;31493;49.058;12.190;2022-11-22T06:03:01;94320.47;;;1.64;100.00
23677;BME280;31493;49.058;12.190;2022-11-22T06:05:29;94317.00;;;1.65;100.00
23677;BME280;31493;49.058;12.190;2022-11-22T06:07:56;94319.94;;;1.73;100.00
23677;BME280;31493;49.058;12.190;2022-11-22T06:10:24;94322.22;;;1.63;100.00
23677;BME280;31493;49.058;12.190;2022-11-22T06:12:51;94314.56;;;1.63;100.00
23677;BME280;31493;49.058;12.190;2022-11-22T06:15:18;94331.97;;;1.56;100.00
23677;BME280;31493;49.058;12.190;2022-11-22T06:17:46;94331.69;;;1.61;100.00
23677;BME280;31493;49.058;12.190;2022-11-22T06:20:14;94334.88;;;1.65;100.00
23677;BME280;31493;49.058;12.190;2022-11-22T06:22:41;94344.53;;;1.59;100.00
23677;BME280;31493;49.058;12.190;2022-11-22T06:25:08;94340.16;;;1.61;100.00
23677;BME280;31493;49.058;12.190;2022-11-22T06:27:35;94331.50;;;1.64;100.00
23677;BME280;31493;49.058;12.190;2022-11-22T06:30:03;94346.34;;;1.57;100.00
23677;BME280;31493;49.058;12.190;2022-11-22T06:32:31;94343.19;;;1.54;100.00
23677;BME280;31493;49.058;12.190;2022-11-22T06:35:00;94336.25;;;1.56;100.00
23677;BME280;31493;49.058;12.190;2022-11-22T06:37:28;94346.19;;;1.60;100.00
23677;BME280;31493;49.058;12.190;2022-11-22T06:39:55;94323.41;;;1.57;100.00
23677;BME280;31493;49.058;12.190;2022-11-22T06:42:22;94336.16;;;1.57;100.00
23677;BME280;31493;49.058;12.190;2022-11-22T06:44:49;94329.31;;;1.58;100.00
23677;BME280;31493;49.058;12.190;2022-11-22T06:47:16;94340.25;;;1.60;100.00
23677;BME280;31493;49.058;12.190;2022-11-22T06:49:43;94352.09;;;1.61;100.00
23677;BME280;31493;49.058;12.190;2022-11-22T06:52:12;94343.69;;;1.59;100.00
23677;BME280;31493;49.058;12.190;2022-11-22T06:54:39;94348.53;;;1.64;100.00
23677;BME280;31493;49.058;12.190;2022-11-22T06:57:06;94355.53;;;1.74;100.00
23677;BME280;31493;49.058;12.190;2022-11-22T06:59:33;94358.03;;;1.61;100.00
23677;BME280;31493;49.058;12.190;2022-11-22T07:02:00;94356.00;;;1.67;100.00
23677;BME280;31493;49.058;12.190;2022-11-22T07:04:27;94355.28;;;1.65;100.00
23677;BME280;31493;49.058;12.190;2022-11-22T07:06:54;94355.19;;;1.66;100.00
23677;BME280;31493;49.058;12.190;2022-11-22T07:09:23;94363.47;;;1.70;100.00
23677;BME280;31493;49.058;12.190;2022-11-22T07:11:50;94366.13;;;1.68;100.00
23677;BME280;31493;49.058;12.190;2022-11-22T07:14:17;94383.97;;;1.68;100.00
23677;BME280;31493;49.058;12.190;2022-11-22T07:16:44;94391.38;;;1.73;100.00
23677;BME280;31493;49.058;12.190;2022-11-22T07:19:11;94387.09;;;1.73;100.00
23677;BME280;31493;49.058;12.190;2022-11-22T07:21:38;94398.38;;;1.69;100.00
23677;BME280;31493;49.058;12.190;2022-11-22T07:24:06;94405.31;;;1.67;100.00
23677;BME280;31493;49.058;12.190;2022-11-22T07:26:35;94400.66;;;1.74;100.00
23677;BME280;31493;49.058;12.190;2022-11-22T07:29:02;94390.34;;;1.75;100.00
23677;BME280;31493;49.058;12.190;2022-11-22T07:31:29;94410.28;;;1.83;100.00
23677;BME280;31493;49.058;12.190;2022-11-22T07:33:56;94404.00;;;1.88;100.00
23677;BME280;31493;49.058;12.190;2022-11-22T07:36:23;94414.31;;;1.87;100.00
23677;BME280;31493;49.058;12.190;2022-11-22T07:38:53;94414.09;;;1.90;100.00
23677;BME280;31493;49.058;12.190;2022-11-22T07:41:21;94420.50;;;1.97;100.00
23677;BME280;31493;49.058;12.190;2022-11-22T07:43:49;94408.38;;;2.01;100.00
23677;BME280;31493;49.058;12.190;2022-11-22T07:46:22;94406.69;;;2.14;100.00
23677;BME280;31493;49.058;12.190;2022-11-22T07:48:49;94409.25;;;2.14;100.00
23677;BME280;31493;49.058;12.190;2022-11-22T07:51:17;94403.69;;;2.22;100.00
23677;BME280;31493;49.058;12.190;2022-11-22T07:53:44;94401.66;;;2.27;100.00
23677;BME280;31493;49.058;12.190;2022-11-22T07:56:11;94403.13;;;2.31;100.00
23677;BME280;31493;49.058;12.190;2022-11-22T07:58:38;94416.38;;;2.23;100.00
23677;BME280;31493;49.058;12.190;2022-11-22T08:01:08;94421.28;;;2.26;100.00
23677;BME280;31493;49.058;12.190;2022-11-22T08:03:36;94442.81;;;2.22;100.00
23677;BME280;31493;49.058;12.190;2022-11-22T08:06:04;94447.47;;;2.15;100.00
23677;BME280;31493;49.058;12.190;2022-11-22T08:08:32;94457.22;;;2.23;100.00
23677;BME280;31493;49.058;12.190;2022-11-22T08:10:59;94454.56;;;2.25;100.00
23677;BME280;31493;49.058;12.190;2022-11-22T08:13:27;94453.09;;;2.21;100.00
23677;BME280;31493;49.058;12.190;2022-11-22T08:15:54;94443.44;;;2.26;100.00
23677;BME280;31493;49.058;12.190;2022-11-22T08:18:23;94441.41;;;2.31;100.00
23677;BME280;31493;49.058;12.190;2022-11-22T08:20:50;94451.47;;;2.34;100.00
23677;BME280;31493;49.058;12.190;2022-11-22T08:23:17;94450.34;;;2.38;100.00
23677;BME280;31493;49.058;12.190;2022-11-22T08:25:44;94455.63;;;2.49;100.00
23677;BME280;31493;49.058;12.190;2022-11-22T08:28:11;94463.78;;;2.68;100.00
23677;BME280;31493;49.058;12.190;2022-11-22T08:30:38;94450.47;;;2.63;100.00
23677;BME280;31493;49.058;12.190;2022-11-22T08:33:05;94452.56;;;2.71;100.00
23677;BME280;31493;49.058;12.190;2022-11-22T08:35:33;94472.25;;;2.69;100.00
23677;BME280;31493;49.058;12.190;2022-11-22T08:38:00;94477.75;;;2.63;100.00
23677;BME280;31493;49.058;12.190;2022-11-22T08:40:27;94478.88;;;2.59;100.00
23677;BME280;31493;49.058;12.190;2022-11-22T08:42:54;94483.41;;;2.68;100.00
23677;BME280;31493;49.058;12.190;2022-11-22T08:45:22;94482.03;;;2.62;100.00
23677;BME280;31493;49.058;12.190;2022-11-22T08:47:49;94495.94;;;2.58;100.00
23677;BME280;31493;49.058;12.190;2022-11-22T08:50:17;94494.09;;;2.60;100.00
23677;BME280;31493;49.058;12.190;2022-11-22T08:52:45;94494.72;;;2.64;100.00
23677;BME280;31493;49.058;12.190;2022-11-22T08:55:12;94495.13;;;2.58;100.00
23677;BME280;31493;49.058;12.190;2022-11-22T08:57:39;94505.50;;;2.55;100.00
23677;BME280;31493;49.058;12.190;2022-11-22T09:00:09;94500.94;;;2.60;100.00
23677;BME280;31493;49.058;12.190;2022-11-22T09:02:36;94496.72;;;2.73;100.00
23677;BME280;31493;49.058;12.190;2022-11-22T09:05:04;94497.09;;;2.67;100.00
23677;BME280;31493;49.058;12.190;2022-11-22T09:07:31;94494.72;;;2.64;100.00
23677;BME280;31493;49.058;12.190;2022-11-22T09:09:59;94507.59;;;2.62;100.00
23677;BME280;31493;49.058;12.190;2022-11-22T09:12:26;94507.69;;;2.61;100.00
23677;BME280;31493;49.058;12.190;2022-11-22T09:14:53;94512.81;;;2.61;100.00
23677;BME280;31493;49.058;12.190;2022-11-22T09:17:20;94501.38;;;2.66;100.00
23677;BME280;31493;49.058;12.190;2022-11-22T09:19:47;94518.56;;;2.64;100.00
23677;BME280;31493;49.058;12.190;2022-11-22T09:22:14;94507.03;;;2.72;100.00
23677;BME280;31493;49.058;12.190;2022-11-22T09:24:41;94515.63;;;2.71;100.00
23677;BME280;31493;49.058;12.190;2022-11-22T09:27:10;94508.41;;;2.77;100.00
23677;BME280;31493;49.058;12.190;2022-11-22T09:29:37;94502.38;;;2.78;100.00
23677;BME280;31493;49.058;12.190;2022-11-22T09:32:07;94512.59;;;2.78;100.00
23677;BME280;31493;49.058;12.190;2022-11-22T09:34:34;94526.03;;;2.67;100.00
23677;BME280;31493;49.058;12.190;2022-11-22T09:37:01;94521.00;;;2.66;100.00
23677;BME280;31493;49.058;12.190;2022-11-22T09:39:28;94527.66;;;2.68;100.00
23677;BME280;31493;49.058;12.190;2022-11-22T09:42:32;94534.59;;;2.66;100.00
23677;BME280;31493;49.058;12.190;2022-11-22T09:45:35;94536.13;;;2.69;100.00
23677;BME280;31493;49.058;12.190;2022-11-22T09:48:17;94531.41;;;2.63;100.00
23677;BME280;31493;49.058;12.190;2022-11-22T09:50:53;94525.47;;;2.77;100.00
23677;BME280;31493;49.058;12.190;2022-11-22T09:53:31;94532.13;;;2.79;100.00
23677;BME280;31493;49.058;12.190;2022-11-22T09:56:03;94531.94;;;2.68;100.00
23677;BME280;31493;49.058;12.190;2022-11-22T09:58:37;94537.31;;;2.63;100.00
23677;BME280;31493;49.058;12.190;2022-11-22T10:01:10;94542.81;;;2.72;100.00
23677;BME280;31493;49.058;12.190;2022-11-22T10:03:43;94539.44;;;2.71;100.00
23677;BME280;31493;49.058;12.190;2022-11-22T10:06:17;94538.03;;;2.80;100.00
23677;BME280;31493;49.058;12.190;2022-11-22T10:08:54;94537.38;;;2.90;100.00
23677;BME280;31493;49.058;12.190;2022-11-22T10:11:30;94536.19;;;2.82;100.00
23677;BME280;31493;49.058;12.190;2022-11-22T10:14:04;94540.03;;;2.89;100.00
23677;BME280;31493;49.058;12.190;2022-11-22T10:16:40;94532.38;;;2.89;100.00
23677;BME280;31493;49.058;12.190;2022-11-22T10:19:12;94524.41;;;2.93;100.00
23677;BME280;31493;49.058;12.190;2022-11-22T10:21:41;94541.47;;;3.07;100.00
23677;BME280;31493;49.058;12.190;2022-11-22T10:24:12;94527.25;;;3.16;100.00
23677;BME280;31493;49.058;12.190;2022-11-22T10:26:40;94535.84;;;3.15;100.00
23677;BME280;31493;49.058;12.190;2022-11-22T10:29:25;94531.78;;;3.25;100.00
23677;BME280;31493;49.058;12.190;2022-11-22T10:32:03;94541.81;;;3.28;100.00
23677;BME280;31493;49.058;12.190;2022-11-22T10:34:42;94536.47;;;3.45;100.00
23677;BME280;31493;49.058;12.190;2022-11-22T10:37:21;94539.13;;;3.44;100.00
23677;BME280;31493;49.058;12.190;2022-11-22T10:39:57;94541.50;;;3.60;100.00
23677;BME280;31493;49.058;12.190;2022-11-22T10:42:39;94543.56;;;3.67;100.00
23677;BME280;31493;49.058;12.190;2022-11-22T10:45:15;94543.47;;;3.69;100.00
23677;BME280;31493;49.058;12.190;2022-11-22T10:47:52;94546.63;;;3.72;100.00
23677;BME280;31493;49.058;12.190;2022-11-22T10:50:24;94550.44;;;3.80;100.00
23677;BME280;31493;49.058;12.190;2022-11-22T10:52:59;94558.06;;;3.54;100.00
23677;BME280;31493;49.058;12.190;2022-11-22T10:55:43;94559.59;;;3.44;100.00
23677;BME280;31493;49.058;12.190;2022-11-22T10:58:22;94563.16;;;3.41;100.00
23677;BME280;31493;49.058;12.190;2022-11-22T11:00:57;94572.16;;;3.47;100.00
23677;BME280;31493;49.058;12.190;2022-11-22T11:03:27;94565.03;;;3.52;100.00
23677;BME280;31493;49.058;12.190;2022-11-22T11:06:01;94571.47;;;3.45;100.00
23677;BME280;31493;49.058;12.190;2022-11-22T11:08:35;94565.56;;;3.57;100.00
23677;BME280;31493;49.058;12.190;2022-11-22T11:11:04;94562.69;;;3.62;100.00
23677;BME280;31493;49.058;12.190;2022-11-22T11:13:33;94565.25;;;3.62;100.00
23677;BME280;31493;49.058;12.190;2022-11-22T11:16:07;94565.97;;;3.64;100.00
23677;BME280;31493;49.058;12.190;2022-11-22T11:18:38;94557.41;;;3.77;100.00
23677;BME280;31493;49.058;12.190;2022-11-22T11:21:10;94571.84;;;3.91;100.00
23677;BME280;31493;49.058;12.190;2022-11-22T11:23:38;94564.16;;;3.91;100.00
23677;BME280;31493;49.058;12.190;2022-11-22T11:26:18;94561.03;;;4.00;100.00
23677;BME280;31493;49.058;12.190;2022-11-22T11:28:46;94547.47;;;3.98;100.00
23677;BME280;31493;49.058;12.190;2022-11-22T11:31:15;94551.78;;;3.98;100.00
23677;BME280;31493;49.058;12.190;2022-11-22T11:33:44;94554.84;;;3.90;100.00
23677;BME280;31493;49.058;12.190;2022-11-22T11:36:15;94552.19;;;4.04;100.00
23677;BME280;31493;49.058;12.190;2022-11-22T11:38:52;94548.81;;;4.17;100.00
23677;BME280;31493;49.058;12.190;2022-11-22T11:41:22;94528.44;;;4.28;100.00
23677;BME280;31493;49.058;12.190;2022-11-22T11:43:50;94528.13;;;4.32;100.00
23677;BME280;31493;49.058;12.190;2022-11-22T11:46:20;94521.03;;;4.49;100.00
23677;BME280;31493;49.058;12.190;2022-11-22T11:48:48;94520.84;;;4.39;100.00
23677;BME280;31493;49.058;12.190;2022-11-22T11:51:19;94521.63;;;4.52;100.00
23677;BME280;31493;49.058;12.190;2022-11-22T11:53:59;94529.56;;;4.49;100.00
23677;BME280;31493;49.058;12.190;2022-11-22T11:56:32;94523.00;;;4.45;100.00
23677;BME280;31493;49.058;12.190;2022-11-22T11:59:04;94524.44;;;4.49;100.00
23677;BME280;31493;49.058;12.190;2022-11-22T12:01:34;94523.91;;;4.44;100.00
23677;BME280;31493;49.058;12.190;2022-11-22T12:04:03;94521.09;;;4.60;100.00
23677;BME280;31493;49.058;12.190;2022-11-22T12:06:31;94529.50;;;4.75;100.00
23677;BME280;31493;49.058;12.190;2022-11-22T12:09:00;94531.75;;;4.79;100.00
23677;BME280;31493;49.058;12.190;2022-11-22T12:11:33;94522.75;;;4.74;100.00
23677;BME280;31493;49.058;12.190;2022-11-22T12:14:04;94523.56;;;4.74;100.00
23677;BME280;31493;49.058;12.190;2022-11-22T12:16:39;94526.66;;;4.91;100.00
23677;BME280;31493;49.058;12.190;2022-11-22T12:19:15;94527.41;;;4.93;100.00
23677;BME280;31493;49.058;12.190;2022-11-22T12:21:51;94517.59;;;5.10;100.00
23677;BME280;31493;49.058;12.190;2022-11-22T12:24:24;94518.72;;;5.06;100.00
23677;BME280;31493;49.058;12.190;2022-11-22T12:26:53;94514.97;;;5.23;100.00
23677;BME280;31493;49.058;12.190;2022-11-22T12:29:22;94509.50;;;5.28;100.00
23677;BME280;31493;49.058;12.190;2022-11-22T12:31:52;94511.28;;;5.38;100.00
23677;BME280;31493;49.058;12.190;2022-11-22T12:34:24;94513.91;;;5.26;100.00
23677;BME280;31493;49.058;12.190;2022-11-22T12:36:58;94516.03;;;5.08;100.00
23677;BME280;31493;49.058;12.190;2022-11-22T12:39:27;94518.66;;;4.95;100.00
23677;BME280;31493;49.058;12.190;2022-11-22T12:41:58;94506.56;;;4.97;100.00
23677;BME280;31493;49.058;12.190;2022-11-22T12:44:31;94501.25;;;4.88;100.00
23677;BME280;31493;49.058;12.190;2022-11-22T12:47:05;94498.88;;;4.97;100.00
23677;BME280;31493;49.058;12.190;2022-11-22T12:49:40;94499.34;;;5.02;100.00
23677;BME280;31493;49.058;12.190;2022-11-22T12:52:14;94506.56;;;4.97;100.00
23677;BME280;31493;49.058;12.190;2022-11-22T12:54:54;94503.03;;;4.74;100.00
23677;BME280;31493;49.058;12.190;2022-11-22T12:57:30;94509.13;;;4.97;100.00
23677;BME280;31493;49.058;12.190;2022-11-22T13:00:04;94506.44;;;4.99;100.00
23677;BME280;31493;49.058;12.190;2022-11-22T13:02:37;94503.22;;;5.08;100.00